Queen Of Nanaimo — VCNX — position and weather

sailwx.info

Track history (hours):
 
Tides and Currents Weather Stations Pressure Air Temp Water Temp Dewpoint Dewpoint Depression Visibility Wind Speed Wind Dir Waves Ship Positions

Queen Of Nanaimo

Last reported at 2017-Feb-25 06:20 UTC. Time now 2017-Feb-25 13:49 UTC.
Position N 48°51' W 123°27'.

Length 130 m; draft 4 m.

Type: Passenger vessel. MMSI: 316001254.

Date/timePositionNaut miles runAvg speedWind from/ knotsBaromVisibWave heightAir tempDewpointWater temp
2017-Feb-25 06:20N 48°51' W 123°27'6 7.8
2017-Feb-25 05:34N 48°48' W 123°19'5 4.0
2017-Feb-25 04:25N 48°53' W 123°19'1011.4
2017-Feb-25 03:33N 48°60' W 123°08'1 0.8
2017-Feb-25 02:33N 49°00' W 123°08'1110.7
2017-Feb-25 01:33N 48°53' W 123°19'2 1.9
2017-Feb-25 00:31N 48°51' W 123°20'3 3.6
2017-Feb-24 23:33N 48°49' W 123°24'3 1.0
2017-Feb-24 21:06N 48°51' W 123°27'611.0
2017-Feb-24 20:33N 48°48' W 123°19'3 3.0
2017-Feb-24 19:33N 48°51' W 123°20'8 7.8
2017-Feb-24 18:33N 48°57' W 123°13'5 4.9
2017-Feb-24 17:33N 49°00' W 123°08'9 9.4
2017-Feb-24 16:33N 48°53' W 123°17'3 3.0
2017-Feb-24 15:33N 48°51' W 123°20'4 3.5
2017-Feb-24 14:33N 48°50' W 123°25'2 0.4
2017-Feb-24 09:29N 48°51' W 123°27'0 0.0
2017-Feb-24 07:31N 48°51' W 123°27'0 0.0
2017-Feb-24 06:19N 48°51' W 123°27'6 7.9
2017-Feb-24 05:34N 48°48' W 123°19'5 4.6
2017-Feb-24 04:34N 48°53' W 123°19'10 9.7
2017-Feb-24 03:33N 48°60' W 123°09'1 0.9
2017-Feb-24 02:33N 49°00' W 123°08'1110.7
2017-Feb-24 01:33N 48°53' W 123°19'2 1.9
2017-Feb-24 00:33N 48°51' W 123°20'3 3.4
2017-Feb-23 23:33N 48°49' W 123°24'3 2.8
2017-Feb-23 22:33N 48°51' W 123°27'0 0.0
2017-Feb-23 21:16N 48°51' W 123°27'6 8.5
2017-Feb-23 20:34N 48°48' W 123°19'4 3.6
2017-Feb-23 19:33N 48°52' W 123°19'8 8.3
2017-Feb-23 18:33N 48°58' W 123°12'3 3.4
2017-Feb-23 17:34N 49°00' W 123°08'1010.5
2017-Feb-23 16:33N 48°53' W 123°18'2 2.2
2017-Feb-23 15:33N 48°51' W 123°20'4 3.4
2017-Feb-23 14:29N 48°51' W 123°26'1 0.1
2017-Feb-23 07:22N 48°51' W 123°27'0 0.0
2017-Feb-23 06:27N 48°51' W 123°27'6 6.7
2017-Feb-23 05:33N 48°48' W 123°19'4 3.7
2017-Feb-23 04:33N 48°52' W 123°19'9 9.3
2017-Feb-23 03:33N 48°59' W 123°10'2 1.7
2017-Feb-23 02:25N 49°00' W 123°08'11 9.9
2017-Feb-23 01:20N 48°53' W 123°19'2 2.4
2017-Feb-23 00:32N 48°51' W 123°20'4 3.6
2017-Feb-22 23:33N 48°50' W 123°25'2 2.1
2017-Feb-22 22:32N 48°51' W 123°27'0 0.0
2017-Feb-22 21:29N 48°51' W 123°27'6 6.2
2017-Feb-22 20:33N 48°48' W 123°19'4 3.6
2017-Feb-22 19:33N 48°51' W 123°21'8 7.9
2017-Feb-22 18:33N 48°57' W 123°13'5 4.6
2017-Feb-22 17:33N 49°00' W 123°08'1010.3
2017-Feb-22 16:33N 48°53' W 123°18'3 2.6
2017-Feb-22 15:29N 48°51' W 123°21'3 2.6
2017-Feb-22 14:32N 48°50' W 123°25'2 1.5
2017-Feb-22 13:06N 48°51' W 123°27'0 0.0
2017-Feb-22 12:25N 48°51' W 123°27'0 0.0
2017-Feb-22 08:22N 48°51' W 123°27'6 2.1
2017-Feb-22 05:33N 48°48' W 123°19'4 3.6
2017-Feb-22 04:33N 48°52' W 123°19'9 8.9
2017-Feb-22 03:33N 48°59' W 123°10'2 2.4
2017-Feb-22 02:33N 49°00' W 123°08'1110.8
2017-Feb-22 01:33N 48°53' W 123°19'2 1.9
2017-Feb-22 00:30N 48°51' W 123°20'3 0.7
2017-Feb-21 20:33N 48°48' W 123°19'3 3.4
2017-Feb-21 19:33N 48°51' W 123°21'8 8.4
2017-Feb-21 18:33N 48°57' W 123°12'4 4.2
2017-Feb-21 17:34N 49°00' W 123°08'10 9.8
2017-Feb-21 16:33N 48°53' W 123°18'3 2.5
2017-Feb-21 15:33N 48°51' W 123°20'4 3.5
2017-Feb-21 14:27N 48°50' W 123°25'1 1.3
2017-Feb-21 13:33N 48°51' W 123°27'0 0.0
2017-Feb-21 12:27N 48°51' W 123°27'6 0.9
2017-Feb-21 05:33N 48°48' W 123°19'5 4.5
2017-Feb-21 04:33N 48°53' W 123°18'9 9.2
2017-Feb-21 03:33N 48°59' W 123°09'1 1.3
2017-Feb-21 02:33N 49°00' W 123°08'11 9.3
2017-Feb-21 01:24N 48°53' W 123°19'2 2.3
2017-Feb-21 00:31N 48°51' W 123°20'3 0.8
2017-Feb-20 20:34N 48°48' W 123°19'4 3.5
2017-Feb-20 19:33N 48°51' W 123°21'8 8.2
2017-Feb-20 18:33N 48°57' W 123°13'4 4.3
2017-Feb-20 17:33N 49°00' W 123°08'1010.1
2017-Feb-20 16:33N 48°53' W 123°18'3 2.5
2017-Feb-20 15:31N 48°51' W 123°20'1 0.1
2017-Feb-20 06:32N 48°52' W 123°21'1212.4
2017-Feb-20 05:33N 49°00' W 123°08'1010.1
2017-Feb-20 04:33N 48°53' W 123°18'1 1.4
2017-Feb-20 03:32N 48°52' W 123°19'1111.7
2017-Feb-20 02:33N 49°00' W 123°08'5 4.7
2017-Feb-20 01:33N 48°56' W 123°12'8 7.9
2017-Feb-20 00:33N 48°51' W 123°21'4 1.2
2017-Feb-19 21:33N 48°48' W 123°20'4 3.7
2017-Feb-19 20:33N 48°52' W 123°21'9 8.7
2017-Feb-19 19:34N 48°58' W 123°12'4 3.7
2017-Feb-19 18:33N 49°00' W 123°08'10 9.5
2017-Feb-19 17:33N 48°53' W 123°17'3 2.6
2017-Feb-19 16:26N 48°51' W 123°20'4 0.4
2017-Feb-19 07:33N 48°51' W 123°26'5 4.9
2017-Feb-19 06:33N 48°53' W 123°19'1110.7
2017-Feb-19 05:33N 49°03' W 123°20'8 8.2
2017-Feb-19 04:33N 49°00' W 123°08'0 0.0
2017-Feb-19 03:33N 49°00' W 123°08'0 0.0
2017-Feb-19 02:33N 49°00' W 123°08'11 9.7
2017-Feb-19 01:27N 48°53' W 123°19'4 4.4
2017-Feb-19 00:32N 48°49' W 123°20'4 1.1
2017-Feb-18 21:18N 48°51' W 123°24'1013.6
2017-Feb-18 20:34N 48°57' W 123°12'1 1.5
2017-Feb-18 19:34N 48°58' W 123°10'9 8.8
2017-Feb-18 18:29N 48°51' W 123°20'2 1.8
2017-Feb-18 17:25N 48°53' W 123°19'1112.4
2017-Feb-18 16:33N 49°00' W 123°08'4 4.5
2017-Feb-18 15:33N 48°56' W 123°11'12 3.6
2017-Feb-18 12:20N 48°51' W 123°27'0 0.0
2017-Feb-18 11:33N 48°51' W 123°27'0 0.0
2017-Feb-18 10:30N 48°51' W 123°27'0 0.0
2017-Feb-18 09:23N 48°51' W 123°27'0 0.0
2017-Feb-18 07:05N 48°51' W 123°27'0 0.1
2017-Feb-18 06:17N 48°51' W 123°27'6 8.4
2017-Feb-18 05:33N 48°48' W 123°19'4 4.5
2017-Feb-18 04:33N 48°52' W 123°19'9 9.5
2017-Feb-18 03:34N 48°60' W 123°09'1 1.2
2017-Feb-18 02:34N 49°00' W 123°08'11 8.3
2017-Feb-18 01:16N 48°53' W 123°19'2 2.7
2017-Feb-18 00:30N 48°51' W 123°20'3 3.2
2017-Feb-17 23:32N 48°49' W 123°24'4 1.2
2017-Feb-17 20:33N 48°48' W 123°19'4 3.7
2017-Feb-17 19:33N 48°52' W 123°19'8 8.5
2017-Feb-17 18:33N 48°59' W 123°11'3 2.7
2017-Feb-17 17:33N 49°00' W 123°08'9 9.4
2017-Feb-17 16:33N 48°53' W 123°17'3 2.8
2017-Feb-17 15:29N 48°51' W 123°20'4 3.6
2017-Feb-17 14:28N 48°50' W 123°25'1 1.2
2017-Feb-17 13:22N 48°51' W 123°27'0 0.0
2017-Feb-17 12:31N 48°51' W 123°27'0 0.0
2017-Feb-17 07:11N 48°51' W 123°27'0 0.0
2017-Feb-17 06:30N 48°51' W 123°27'6 6.4
2017-Feb-17 05:33N 48°48' W 123°19'4 4.4
2017-Feb-17 04:33N 48°52' W 123°18'9 8.9
2017-Feb-17 03:33N 48°59' W 123°10'2 1.6
2017-Feb-17 02:33N 49°00' W 123°08'1110.6
2017-Feb-17 01:33N 48°53' W 123°19'2 2.0
2017-Feb-17 00:33N 48°51' W 123°20'4 3.3
2017-Feb-16 23:26N 48°51' W 123°25'1 1.0
2017-Feb-16 22:26N 48°51' W 123°27'0 0.0
2017-Feb-16 21:26N 48°51' W 123°27'6 6.7
2017-Feb-16 20:33N 48°48' W 123°19'3 3.1
2017-Feb-16 19:33N 48°51' W 123°20'8 8.1
2017-Feb-16 18:33N 48°57' W 123°13'4 4.4
2017-Feb-16 17:33N 49°00' W 123°08'10 9.7
2017-Feb-16 16:33N 48°53' W 123°18'3 2.4
2017-Feb-16 15:29N 48°51' W 123°20'4 3.8
2017-Feb-16 14:29N 48°51' W 123°26'1 1.0
2017-Feb-16 13:32N 48°51' W 123°27'0 0.0
2017-Feb-16 06:25N 48°51' W 123°27'6 7.0
2017-Feb-16 05:33N 48°48' W 123°19'4 4.5
2017-Feb-16 04:33N 48°52' W 123°19'8 8.5
2017-Feb-16 03:33N 48°59' W 123°11'2 2.2
2017-Feb-16 02:34N 49°00' W 123°08'1110.6
2017-Feb-16 01:33N 48°53' W 123°19'2 1.9
2017-Feb-16 00:33N 48°51' W 123°20'3 3.5
2017-Feb-15 23:33N 48°49' W 123°24'2 2.3
2017-Feb-15 22:30N 48°51' W 123°27'0 0.0
2017-Feb-15 21:29N 48°51' W 123°27'6 6.3
2017-Feb-15 20:33N 48°48' W 123°19'3 2.7
2017-Feb-15 19:33N 48°51' W 123°20'8 7.7
2017-Feb-15 18:33N 48°57' W 123°13'5 4.8
2017-Feb-15 17:33N 49°00' W 123°08'1110.3
2017-Feb-15 16:32N 48°53' W 123°19'5 4.3
2017-Feb-15 15:29N 48°48' W 123°19'6 5.7
2017-Feb-15 14:26N 48°51' W 123°27'0 0.0
2017-Feb-15 08:17N 48°51' W 123°27'  
Track history (hours):
 
Tides and Currents Weather Stations Pressure Air Temp Water Temp Dewpoint Dewpoint Depression Visibility Wind Speed Wind Dir Waves Ship Positions

Queen Of Nanaimo

Last reported at 2017-Feb-25 06:20 UTC. Time now 2017-Feb-25 13:49 UTC.
Position N 48°51' W 123°27'.

Length 130 m; draft 4 m.

Type: Passenger vessel. MMSI: 316001254.

Date/timePositionNaut miles runAvg speedWind from/ knotsBaromVisibWave heightAir tempDewpointWater temp
2017-Feb-25 06:20N 48°51' W 123°27'6 7.8
2017-Feb-25 05:34N 48°48' W 123°19'5 4.0
2017-Feb-25 04:25N 48°53' W 123°19'1011.4
2017-Feb-25 03:33N 48°60' W 123°08'1 0.8
2017-Feb-25 02:33N 49°00' W 123°08'1110.7
2017-Feb-25 01:33N 48°53' W 123°19'2 1.9
2017-Feb-25 00:31N 48°51' W 123°20'3 3.6
2017-Feb-24 23:33N 48°49' W 123°24'3 1.0
2017-Feb-24 21:06N 48°51' W 123°27'611.0
2017-Feb-24 20:33N 48°48' W 123°19'3 3.0
2017-Feb-24 19:33N 48°51' W 123°20'8 7.8
2017-Feb-24 18:33N 48°57' W 123°13'5 4.9
2017-Feb-24 17:33N 49°00' W 123°08'9 9.4
2017-Feb-24 16:33N 48°53' W 123°17'3 3.0
2017-Feb-24 15:33N 48°51' W 123°20'4 3.5
2017-Feb-24 14:33N 48°50' W 123°25'2 0.4
2017-Feb-24 09:29N 48°51' W 123°27'0 0.0
2017-Feb-24 07:31N 48°51' W 123°27'0 0.0
2017-Feb-24 06:19N 48°51' W 123°27'6 7.9
2017-Feb-24 05:34N 48°48' W 123°19'5 4.6
2017-Feb-24 04:34N 48°53' W 123°19'10 9.7
2017-Feb-24 03:33N 48°60' W 123°09'1 0.9
2017-Feb-24 02:33N 49°00' W 123°08'1110.7
2017-Feb-24 01:33N 48°53' W 123°19'2 1.9
2017-Feb-24 00:33N 48°51' W 123°20'3 3.4
2017-Feb-23 23:33N 48°49' W 123°24'3 2.8
2017-Feb-23 22:33N 48°51' W 123°27'0 0.0
2017-Feb-23 21:16N 48°51' W 123°27'6 8.5
2017-Feb-23 20:34N 48°48' W 123°19'4 3.6
2017-Feb-23 19:33N 48°52' W 123°19'8 8.3
2017-Feb-23 18:33N 48°58' W 123°12'3 3.4
2017-Feb-23 17:34N 49°00' W 123°08'1010.5
2017-Feb-23 16:33N 48°53' W 123°18'2 2.2
2017-Feb-23 15:33N 48°51' W 123°20'4 3.4
2017-Feb-23 14:29N 48°51' W 123°26'1 0.1
2017-Feb-23 07:22N 48°51' W 123°27'0 0.0
2017-Feb-23 06:27N 48°51' W 123°27'6 6.7
2017-Feb-23 05:33N 48°48' W 123°19'4 3.7
2017-Feb-23 04:33N 48°52' W 123°19'9 9.3
2017-Feb-23 03:33N 48°59' W 123°10'2 1.7
2017-Feb-23 02:25N 49°00' W 123°08'11 9.9
2017-Feb-23 01:20N 48°53' W 123°19'2 2.4
2017-Feb-23 00:32N 48°51' W 123°20'4 3.6
2017-Feb-22 23:33N 48°50' W 123°25'2 2.1
2017-Feb-22 22:32N 48°51' W 123°27'0 0.0
2017-Feb-22 21:29N 48°51' W 123°27'6 6.2
2017-Feb-22 20:33N 48°48' W 123°19'4 3.6
2017-Feb-22 19:33N 48°51' W 123°21'8 7.9
2017-Feb-22 18:33N 48°57' W 123°13'5 4.6
2017-Feb-22 17:33N 49°00' W 123°08'1010.3
2017-Feb-22 16:33N 48°53' W 123°18'3 2.6
2017-Feb-22 15:29N 48°51' W 123°21'3 2.6
2017-Feb-22 14:32N 48°50' W 123°25'2 1.5
2017-Feb-22 13:06N 48°51' W 123°27'0 0.0
2017-Feb-22 12:25N 48°51' W 123°27'0 0.0
2017-Feb-22 08:22N 48°51' W 123°27'6 2.1
2017-Feb-22 05:33N 48°48' W 123°19'4 3.6
2017-Feb-22 04:33N 48°52' W 123°19'9 8.9
2017-Feb-22 03:33N 48°59' W 123°10'2 2.4
2017-Feb-22 02:33N 49°00' W 123°08'1110.8
2017-Feb-22 01:33N 48°53' W 123°19'2 1.9
2017-Feb-22 00:30N 48°51' W 123°20'3 0.7
2017-Feb-21 20:33N 48°48' W 123°19'3 3.4
2017-Feb-21 19:33N 48°51' W 123°21'8 8.4
2017-Feb-21 18:33N 48°57' W 123°12'4 4.2
2017-Feb-21 17:34N 49°00' W 123°08'10 9.8
2017-Feb-21 16:33N 48°53' W 123°18'3 2.5
2017-Feb-21 15:33N 48°51' W 123°20'4 3.5
2017-Feb-21 14:27N 48°50' W 123°25'1 1.3
2017-Feb-21 13:33N 48°51' W 123°27'0 0.0
2017-Feb-21 12:27N 48°51' W 123°27'6 0.9
2017-Feb-21 05:33N 48°48' W 123°19'5 4.5
2017-Feb-21 04:33N 48°53' W 123°18'9 9.2
2017-Feb-21 03:33N 48°59' W 123°09'1 1.3
2017-Feb-21 02:33N 49°00' W 123°08'11 9.3
2017-Feb-21 01:24N 48°53' W 123°19'2 2.3
2017-Feb-21 00:31N 48°51' W 123°20'3 0.8
2017-Feb-20 20:34N 48°48' W 123°19'4 3.5
2017-Feb-20 19:33N 48°51' W 123°21'8 8.2
2017-Feb-20 18:33N 48°57' W 123°13'4 4.3
2017-Feb-20 17:33N 49°00' W 123°08'1010.1
2017-Feb-20 16:33N 48°53' W 123°18'3 2.5
2017-Feb-20 15:31N 48°51' W 123°20'1 0.1
2017-Feb-20 06:32N 48°52' W 123°21'1212.4
2017-Feb-20 05:33N 49°00' W 123°08'1010.1
2017-Feb-20 04:33N 48°53' W 123°18'1 1.4
2017-Feb-20 03:32N 48°52' W 123°19'1111.7
2017-Feb-20 02:33N 49°00' W 123°08'5 4.7
2017-Feb-20 01:33N 48°56' W 123°12'8 7.9
2017-Feb-20 00:33N 48°51' W 123°21'4 1.2
2017-Feb-19 21:33N 48°48' W 123°20'4 3.7
2017-Feb-19 20:33N 48°52' W 123°21'9 8.7
2017-Feb-19 19:34N 48°58' W 123°12'4 3.7
2017-Feb-19 18:33N 49°00' W 123°08'10 9.5
2017-Feb-19 17:33N 48°53' W 123°17'3 2.6
2017-Feb-19 16:26N 48°51' W 123°20'4 0.4
2017-Feb-19 07:33N 48°51' W 123°26'5 4.9
2017-Feb-19 06:33N 48°53' W 123°19'1110.7
2017-Feb-19 05:33N 49°03' W 123°20'8 8.2
2017-Feb-19 04:33N 49°00' W 123°08'0 0.0
2017-Feb-19 03:33N 49°00' W 123°08'0 0.0
2017-Feb-19 02:33N 49°00' W 123°08'11 9.7
2017-Feb-19 01:27N 48°53' W 123°19'4 4.4
2017-Feb-19 00:32N 48°49' W 123°20'4 1.1
2017-Feb-18 21:18N 48°51' W 123°24'1013.6
2017-Feb-18 20:34N 48°57' W 123°12'1 1.5
2017-Feb-18 19:34N 48°58' W 123°10'9 8.8
2017-Feb-18 18:29N 48°51' W 123°20'2 1.8
2017-Feb-18 17:25N 48°53' W 123°19'1112.4
2017-Feb-18 16:33N 49°00' W 123°08'4 4.5
2017-Feb-18 15:33N 48°56' W 123°11'12 3.6
2017-Feb-18 12:20N 48°51' W 123°27'0 0.0
2017-Feb-18 11:33N 48°51' W 123°27'0 0.0
2017-Feb-18 10:30N 48°51' W 123°27'0 0.0
2017-Feb-18 09:23N 48°51' W 123°27'0 0.0
2017-Feb-18 07:05N 48°51' W 123°27'0 0.1
2017-Feb-18 06:17N 48°51' W 123°27'6 8.4
2017-Feb-18 05:33N 48°48' W 123°19'4 4.5
2017-Feb-18 04:33N 48°52' W 123°19'9 9.5
2017-Feb-18 03:34N 48°60' W 123°09'1 1.2
2017-Feb-18 02:34N 49°00' W 123°08'11 8.3
2017-Feb-18 01:16N 48°53' W 123°19'2 2.7
2017-Feb-18 00:30N 48°51' W 123°20'3 3.2
2017-Feb-17 23:32N 48°49' W 123°24'4 1.2
2017-Feb-17 20:33N 48°48' W 123°19'4 3.7
2017-Feb-17 19:33N 48°52' W 123°19'8 8.5
2017-Feb-17 18:33N 48°59' W 123°11'3 2.7
2017-Feb-17 17:33N 49°00' W 123°08'9 9.4
2017-Feb-17 16:33N 48°53' W 123°17'3 2.8
2017-Feb-17 15:29N 48°51' W 123°20'4 3.6
2017-Feb-17 14:28N 48°50' W 123°25'1 1.2
2017-Feb-17 13:22N 48°51' W 123°27'0 0.0
2017-Feb-17 12:31N 48°51' W 123°27'0 0.0
2017-Feb-17 07:11N 48°51' W 123°27'0 0.0
2017-Feb-17 06:30N 48°51' W 123°27'6 6.4
2017-Feb-17 05:33N 48°48' W 123°19'4 4.4
2017-Feb-17 04:33N 48°52' W 123°18'9 8.9
2017-Feb-17 03:33N 48°59' W 123°10'2 1.6
2017-Feb-17 02:33N 49°00' W 123°08'1110.6
2017-Feb-17 01:33N 48°53' W 123°19'2 2.0
2017-Feb-17 00:33N 48°51' W 123°20'4 3.3
2017-Feb-16 23:26N 48°51' W 123°25'1 1.0
2017-Feb-16 22:26N 48°51' W 123°27'0 0.0
2017-Feb-16 21:26N 48°51' W 123°27'6 6.7
2017-Feb-16 20:33N 48°48' W 123°19'3 3.1
2017-Feb-16 19:33N 48°51' W 123°20'8 8.1
2017-Feb-16 18:33N 48°57' W 123°13'4 4.4
2017-Feb-16 17:33N 49°00' W 123°08'10 9.7
2017-Feb-16 16:33N 48°53' W 123°18'3 2.4
2017-Feb-16 15:29N 48°51' W 123°20'4 3.8
2017-Feb-16 14:29N 48°51' W 123°26'1 1.0
2017-Feb-16 13:32N 48°51' W 123°27'0 0.0
2017-Feb-16 06:25N 48°51' W 123°27'6 7.0
2017-Feb-16 05:33N 48°48' W 123°19'4 4.5
2017-Feb-16 04:33N 48°52' W 123°19'8 8.5
2017-Feb-16 03:33N 48°59' W 123°11'2 2.2
2017-Feb-16 02:34N 49°00' W 123°08'1110.6
2017-Feb-16 01:33N 48°53' W 123°19'2 1.9
2017-Feb-16 00:33N 48°51' W 123°20'3 3.5
2017-Feb-15 23:33N 48°49' W 123°24'2 2.3
2017-Feb-15 22:30N 48°51' W 123°27'0 0.0
2017-Feb-15 21:29N 48°51' W 123°27'6 6.3
2017-Feb-15 20:33N 48°48' W 123°19'3 2.7
2017-Feb-15 19:33N 48°51' W 123°20'8 7.7
2017-Feb-15 18:33N 48°57' W 123°13'5 4.8
2017-Feb-15 17:33N 49°00' W 123°08'1110.3
2017-Feb-15 16:32N 48°53' W 123°19'5 4.3
2017-Feb-15 15:29N 48°48' W 123°19'6 5.7
2017-Feb-15 14:26N 48°51' W 123°27'0 0.0
2017-Feb-15 08:17N 48°51' W 123°27'  

Dump ship's entire track history